Time;durP1;ratioP1;P1;durP2;ratioP2;P2;SDS_P1;SDS_P2;PMS_P1;PMS_P2;Temp;Humidity;BMP_temperature;BMP_pressure;BME280_temperature;BME280_humidity;BME280_pressure;Samples;Min_cycle;Max_cycle;Signal;HPM_P1;HPM_P2
2023/05/26 13:09:56;;;;;;;7.82;2.83;;;28.20;99.90;;;;;;5122148;27;20118;-69
2023/05/26 13:12:23;;;;;;;6.80;2.88;;;28.20;99.90;;;;;;5105610;28;20102;-70
2023/05/26 13:14:49;;;;;;;6.25;2.60;;;28.40;99.90;;;;;;5109916;28;20083;-72
2023/05/26 13:17:16;;;;;;;6.60;2.30;;;28.20;99.90;;;;;;5107842;28;20055;-73
2023/05/26 13:19:44;;;;;;;12.43;2.40;;;28.50;99.90;;;;;;5104108;28;20055;-73
2023/05/26 13:22:10;;;;;;;4.18;1.80;;;28.50;99.90;;;;;;5108852;28;20024;-71
2023/05/26 13:24:36;;;;;;;5.18;2.10;;;28.60;99.90;;;;;;5108149;28;20035;-72
2023/05/26 13:27:03;;;;;;;5.55;2.40;;;28.80;99.90;;;;;;5106616;28;20026;-75
2023/05/26 13:29:29;;;;;;;6.97;2.53;;;28.90;99.90;;;;;;5108506;28;20046;-74
2023/05/26 13:31:58;;;;;;;5.85;2.60;;;29.10;99.90;;;;;;5085024;28;20020;-73
2023/05/26 13:34:24;;;;;;;12.00;2.80;;;29.10;99.90;;;;;;5107840;28;20127;-74
2023/05/26 13:36:50;;;;;;;10.10;3.53;;;29.30;99.90;;;;;;5094180;28;20395;-74
2023/05/26 13:39:17;;;;;;;7.90;3.60;;;29.10;99.90;;;;;;5109598;28;20428;-72
2023/05/26 13:41:44;;;;;;;6.05;2.30;;;29.30;99.90;;;;;;5109986;28;20035;-72
2023/05/26 13:44:09;;;;;;;;;;;29.60;99.90;;;;;;5110257;28;20020;-68
2023/05/26 13:46:37;;;;;;;9.20;2.67;;;29.30;99.90;;;;;;5121062;28;19915;-69
2023/05/26 13:49:04;;;;;;;8.77;3.00;;;29.00;99.90;;;;;;5129973;28;20329;-70
2023/05/26 13:51:30;;;;;;;8.48;2.88;;;28.60;99.90;;;;;;5112605;28;20023;-70
2023/05/26 13:53:58;;;;;;;10.68;2.28;;;28.20;99.90;;;;;;5091167;28;20054;-68
2023/05/26 13:56:24;;;;;;;10.82;2.97;;;28.00;99.90;;;;;;5095519;28;20019;-67
2023/05/26 13:58:51;;;;;;;5.95;2.67;;;28.10;99.90;;;;;;5089666;28;20036;-68
2023/05/26 14:01:17;;;;;;;7.97;2.08;;;28.00;99.90;;;;;;5109718;28;20016;-69
2023/05/26 14:03:43;;;;;;;6.72;2.08;;;28.00;99.90;;;;;;5108903;28;20498;-71
2023/05/26 14:06:09;;;;;;;9.00;2.00;;;27.90;99.90;;;;;;5108796;28;20531;-70
2023/05/26 14:08:35;;;;;;;10.27;2.25;;;27.50;99.90;;;;;;5090047;28;20087;-69
2023/05/26 14:11:01;;;;;;;8.07;2.70;;;27.40;99.90;;;;;;5107602;28;20086;-70
2023/05/26 14:13:28;;;;;;;8.60;2.10;;;26.90;99.90;;;;;;5090581;28;20028;-69
2023/05/26 14:15:55;;;;;;;4.30;2.00;;;26.60;99.90;;;;;;5108663;28;20039;-70
2023/05/26 14:18:21;;;;;;;6.15;2.53;;;26.60;99.90;;;;;;5108606;28;20027;-70
2023/05/26 14:20:47;;;;;;;7.18;2.03;;;26.30;99.90;;;;;;5097210;28;20024;-71
2023/05/26 14:23:13;;;;;;;5.07;2.00;;;26.30;99.90;;;;;;5094802;28;20028;-70
2023/05/26 14:25:39;;;;;;;5.72;1.90;;;26.20;99.90;;;;;;5095004;28;20024;-70
2023/05/26 14:28:05;;;;;;;6.07;2.10;;;26.00;99.90;;;;;;5076400;28;20050;-70
2023/05/26 14:30:32;;;;;;;10.57;2.25;;;26.10;99.90;;;;;;5076490;28;20039;-71
2023/05/26 14:32:59;;;;;;;10.40;1.98;;;25.60;99.90;;;;;;5094548;28;20031;-71
2023/05/26 14:35:25;;;;;;;15.25;4.50;;;25.50;99.90;;;;;;5094856;28;20024;-71
2023/05/26 14:37:51;;;;;;;8.18;2.30;;;25.60;99.90;;;;;;5094040;28;20369;-71
2023/05/26 14:40:17;;;;;;;9.10;2.42;;;25.70;99.90;;;;;;5094448;28;20349;-71
2023/05/26 14:42:43;;;;;;;7.10;2.25;;;25.10;99.90;;;;;;5094873;28;20023;-71
2023/05/26 14:45:09;;;;;;;13.23;2.65;;;24.80;99.90;;;;;;5093470;28;20448;-71
2023/05/26 14:47:35;;;;;;;;;;;24.70;99.90;;;;;;5094090;28;20089;-71
2023/05/26 14:50:01;;;;;;;;;;;24.80;99.90;;;;;;5093715;28;20306;-70
2023/05/26 14:52:27;;;;;;;17.23;2.97;;;24.90;99.90;;;;;;5075649;28;20266;-71
2023/05/26 14:54:53;;;;;;;10.43;2.50;;;24.70;99.90;;;;;;5093627;28;20028;-70
2023/05/26 14:57:20;;;;;;;15.07;2.90;;;24.70;99.90;;;;;;5075123;28;20026;-70
2023/05/26 14:59:46;;;;;;;8.07;2.70;;;24.60;99.90;;;;;;5074551;28;20070;-70
2023/05/26 15:02:12;;;;;;;8.38;2.58;;;24.30;99.90;;;;;;5058278;28;20047;-70
2023/05/26 15:04:39;;;;;;;7.45;2.55;;;24.10;99.90;;;;;;5090949;28;20128;-68
2023/05/26 15:07:06;;;;;;;5.75;2.47;;;24.10;99.90;;;;;;5092945;28;20169;-67
2023/05/26 15:09:32;;;;;;;6.60;2.30;;;24.00;99.90;;;;;;5055714;28;20448;-67
2023/05/26 15:11:58;;;;;;;6.43;2.60;;;24.00;99.90;;;;;;5057167;28;20020;-68
2023/05/26 15:14:24;;;;;;;8.82;3.08;;;23.90;99.90;;;;;;5052822;28;20027;-69
2023/05/26 15:16:50;;;;;;;7.13;2.85;;;23.90;99.90;;;;;;5091685;28;20396;-72
2023/05/26 15:19:16;;;;;;;6.82;2.40;;;23.90;99.90;;;;;;5059209;28;20473;-73
2023/05/26 15:21:42;;;;;;;7.88;2.47;;;24.00;99.90;;;;;;5071770;28;20039;-76
2023/05/26 15:24:08;;;;;;;6.20;1.63;;;24.10;99.90;;;;;;5069479;28;20146;-75
2023/05/26 15:26:35;;;;;;;8.65;2.00;;;24.10;99.90;;;;;;5058217;28;20052;-72
2023/05/26 15:29:01;;;;;;;;;;;24.30;99.90;;;;;;5062363;28;20045;-73
2023/05/26 15:31:27;;;;;;;7.72;2.03;;;24.40;99.90;;;;;;5054240;28;19974;-75
2023/05/26 15:33:53;;;;;;;10.43;2.40;;;24.60;99.90;;;;;;5052283;28;20042;-72
2023/05/26 15:36:21;;;;;;;9.77;2.33;;;24.80;99.90;;;;;;5049884;28;20021;-67
2023/05/26 15:38:47;;;;;;;5.07;2.00;;;24.80;99.90;;;;;;5042301;28;20029;-70
2023/05/26 15:41:13;;;;;;;6.40;2.20;;;25.10;99.90;;;;;;5052992;28;20025;-75
2023/05/26 15:43:40;;;;;;;7.00;2.17;;;25.30;99.90;;;;;;5055954;28;20029;-76
2023/05/26 15:46:06;;;;;;;8.52;2.30;;;25.40;99.90;;;;;;5052964;28;20496;-77
2023/05/26 15:48:40;;;;;;;10.52;2.60;;;25.50;99.90;;;;;;5064807;28;20130;-78
2023/05/26 15:51:06;;;;;;;7.90;2.38;;;25.50;99.90;;;;;;5049560;28;20158;-72
2023/05/26 15:53:32;;;;;;;7.75;2.70;;;25.60;99.90;;;;;;5054076;28;20131;-70
2023/05/26 15:55:59;;;;;;;7.22;2.03;;;25.90;99.90;;;;;;5051661;28;20025;-70
2023/05/26 15:58:26;;;;;;;15.73;2.88;;;26.10;99.90;;;;;;5062807;28;20036;-69
2023/05/26 16:00:52;;;;;;;7.88;2.42;;;25.90;99.90;;;;;;5051515;28;20059;-72
2023/05/26 16:03:20;;;;;;;7.00;2.58;;;25.60;99.90;;;;;;5051796;28;20025;-77
2023/05/26 16:05:47;;;;;;;8.45;2.30;;;25.70;99.90;;;;;;5069550;28;20028;-81
2023/05/26 16:08:12;;;;;;;;;;;25.70;99.90;;;;;;5065456;28;20445;-81
2023/05/26 16:10:38;;;;;;;;;;;25.40;99.90;;;;;;5051720;28;19905;-80
2023/05/26 16:13:04;;;;;;;7.60;2.55;;;25.40;99.90;;;;;;5051439;28;19905;-81
2023/05/26 16:15:31;;;;;;;8.15;2.45;;;25.70;99.90;;;;;;5051728;28;20073;-82
2023/05/26 16:17:57;;;;;;;12.10;2.75;;;25.60;99.90;;;;;;5053021;28;20060;-83
2023/05/26 16:20:23;;;;;;;12.07;2.83;;;26.00;99.90;;;;;;5052226;28;20021;-80
2023/05/26 16:22:55;;;;;;;11.63;2.72;;;26.10;99.90;;;;;;5052310;28;20029;-80
2023/05/26 16:25:21;;;;;;;9.20;2.80;;;26.00;99.90;;;;;;5050999;28;20025;-81
2023/05/26 16:27:47;;;;;;;10.10;3.45;;;26.10;99.90;;;;;;5052325;28;20459;-81
2023/05/26 16:30:13;;;;;;;11.38;3.15;;;26.10;99.90;;;;;;5051947;28;20428;-81
2023/05/26 16:32:43;;;;;;;;;;;26.10;99.90;;;;;;5052799;28;20207;-81
2023/05/26 16:35:10;;;;;;;8.77;3.17;;;26.00;99.90;;;;;;5050779;28;20340;-80
2023/05/26 16:37:36;;;;;;;9.18;3.60;;;25.80;99.90;;;;;;5051787;28;20024;-81
2023/05/26 16:40:03;;;;;;;;;;;25.80;99.90;;;;;;5052097;28;20052;-81
2023/05/26 16:42:29;;;;;;;12.73;3.75;;;25.70;99.90;;;;;;5050569;28;20309;-82
2023/05/26 16:44:55;;;;;;;20.90;4.47;;;25.90;99.90;;;;;;5052591;28;20017;-82
2023/05/26 16:47:21;;;;;;;14.63;4.13;;;25.70;99.90;;;;;;5071056;28;20028;-81
2023/05/26 16:49:48;;;;;;;12.65;3.80;;;25.60;99.90;;;;;;5071633;28;20071;-76
2023/05/26 16:52:14;;;;;;;16.27;4.07;;;25.70;99.90;;;;;;5071187;28;20055;-78
2023/05/26 16:54:40;;;;;;;11.10;4.05;;;25.70;99.90;;;;;;5071296;28;20038;-79
2023/05/26 16:57:06;;;;;;;16.02;4.40;;;25.70;99.90;;;;;;5069180;28;20025;-79
2023/05/26 16:59:32;;;;;;;10.23;3.95;;;25.70;99.90;;;;;;5047368;28;20037;-74
2023/05/26 17:01:58;;;;;;;9.57;3.88;;;25.60;99.90;;;;;;5050907;28;20025;-75
2023/05/26 17:04:24;;;;;;;9.07;3.53;;;25.50;99.90;;;;;;5051074;28;20049;-84
2023/05/26 17:06:50;;;;;;;14.23;4.32;;;25.20;99.90;;;;;;5051065;28;20051;-75
2023/05/26 17:09:17;;;;;;;19.65;5.10;;;25.00;99.90;;;;;;5081736;28;20107;-76
2023/05/26 17:11:43;;;;;;;13.85;5.45;;;24.90;99.90;;;;;;5091122;28;20047;-75
2023/05/26 17:14:09;;;;;;;12.05;6.18;;;24.80;99.90;;;;;;5091156;28;20062;-75
2023/05/26 17:16:35;;;;;;;44.50;8.63;;;24.80;99.90;;;;;;5091038;28;20113;-75
2023/05/26 17:19:01;;;;;;;15.48;5.72;;;24.80;99.90;;;;;;5091857;28;20095;-76
2023/05/26 17:21:27;;;;;;;12.80;5.15;;;24.70;99.90;;;;;;5091738;28;20028;-78
2023/05/26 17:23:53;;;;;;;16.52;6.90;;;24.70;99.90;;;;;;5106859;28;20024;-74
2023/05/26 17:26:19;;;;;;;17.63;6.20;;;24.60;99.90;;;;;;5091318;28;20055;-75
2023/05/26 17:28:45;;;;;;;14.93;6.03;;;24.50;99.90;;;;;;5106747;28;20058;-74
2023/05/26 17:31:13;;;;;;;15.00;5.25;;;24.60;99.90;;;;;;5106989;28;20035;-74
2023/05/26 17:33:42;;;;;;;11.75;4.40;;;24.50;99.90;;;;;;5091807;28;20024;-73
2023/05/26 17:36:08;;;;;;;11.13;5.57;;;24.50;99.90;;;;;;5091469;28;20051;-73
2023/05/26 17:38:37;;;;;;;12.32;4.10;;;24.50;99.90;;;;;;5091402;28;20027;-73
2023/05/26 17:41:05;;;;;;;17.05;5.80;;;24.40;99.90;;;;;;5091139;28;20047;-73
2023/05/26 17:43:32;;;;;;;12.73;5.85;;;24.40;99.90;;;;;;5091358;28;20070;-74
2023/05/26 17:45:58;;;;;;;16.20;6.85;;;24.40;99.90;;;;;;5091296;28;20063;-74
2023/05/26 17:48:24;;;;;;;13.43;5.72;;;24.30;99.90;;;;;;5090756;28;20112;-79
2023/05/26 17:50:50;;;;;;;12.27;5.07;;;24.30;99.90;;;;;;5106441;28;20070;-74
2023/05/26 17:53:16;;;;;;;16.92;5.20;;;24.20;99.90;;;;;;5091376;28;20112;-75
2023/05/26 17:55:42;;;;;;;13.05;5.03;;;24.10;99.90;;;;;;5093135;28;20159;-76
2023/05/26 17:58:08;;;;;;;10.65;4.70;;;24.00;99.90;;;;;;5110461;28;20024;-76
2023/05/26 18:00:35;;;;;;;14.70;4.25;;;23.90;99.90;;;;;;5093927;28;20027;-76
2023/05/26 18:03:01;;;;;;;8.52;4.28;;;23.80;99.90;;;;;;5091127;28;20124;-68
2023/05/26 18:05:27;;;;;;;7.32;3.83;;;23.60;99.90;;;;;;5097735;28;20473;-66
2023/05/26 18:07:53;;;;;;;11.60;4.07;;;23.50;99.90;;;;;;5093492;28;20048;-65
2023/05/26 18:10:19;;;;;;;9.55;4.15;;;23.40;99.90;;;;;;5073584;28;20445;-64
2023/05/26 18:12:46;;;;;;;10.52;3.90;;;23.40;99.90;;;;;;5093444;28;20384;-71
2023/05/26 18:15:13;;;;;;;13.02;3.80;;;23.30;99.90;;;;;;5095118;28;20023;-69
2023/05/26 18:17:39;;;;;;;10.15;3.83;;;23.20;99.90;;;;;;5096556;28;20024;-70
2023/05/26 18:20:11;;;;;;;9.35;3.60;;;23.10;99.90;;;;;;5096625;28;20051;-83
2023/05/26 18:22:38;;;;;;;6.50;3.38;;;23.20;99.90;;;;;;5098790;28;20035;-69
2023/05/26 18:25:05;;;;;;;6.57;3.45;;;23.10;99.90;;;;;;5093016;28;20039;-68
2023/05/26 18:27:32;;;;;;;9.82;3.88;;;23.00;99.90;;;;;;5094311;28;20051;-72
2023/05/26 18:29:59;;;;;;;7.85;3.30;;;23.10;99.90;;;;;;5094476;28;20036;-74
2023/05/26 18:32:27;;;;;;;6.40;3.80;;;22.90;99.90;;;;;;5094564;28;20340;-72
2023/05/26 18:34:53;;;;;;;7.00;3.35;;;22.80;99.90;;;;;;5094364;28;20107;-71
2023/05/26 18:37:19;;;;;;;13.27;3.60;;;22.80;99.90;;;;;;5082703;28;20016;-72
2023/05/26 18:39:53;;;;;;;6.30;2.75;;;22.80;99.90;;;;;;5094009;28;20456;-72
2023/05/26 18:42:20;;;;;;;8.50;3.13;;;22.70;99.90;;;;;;5074292;28;20027;-74
2023/05/26 18:44:46;;;;;;;8.55;3.45;;;22.70;99.90;;;;;;5076023;28;20030;-73
2023/05/26 18:47:12;;;;;;;8.82;3.50;;;22.60;99.90;;;;;;5092624;28;20039;-74
2023/05/26 18:49:38;;;;;;;8.05;3.22;;;22.60;99.90;;;;;;5093125;28;20498;-74
2023/05/26 18:52:05;;;;;;;8.13;3.30;;;22.50;99.90;;;;;;5095223;28;20055;-75
2023/05/26 18:54:31;;;;;;;7.05;3.30;;;22.50;99.90;;;;;;5098102;28;20024;-74
2023/05/26 18:56:57;;;;;;;5.78;2.97;;;22.50;99.90;;;;;;5094172;28;20164;-74
2023/05/26 18:59:23;;;;;;;5.10;3.28;;;22.40;99.90;;;;;;5084469;28;20024;-72
2023/05/26 19:01:50;;;;;;;7.82;3.47;;;22.20;99.90;;;;;;5075611;28;20058;-75
2023/05/26 19:04:16;;;;;;;8.13;3.17;;;22.10;99.90;;;;;;5091861;28;20480;-71
2023/05/26 19:06:42;;;;;;;9.98;3.78;;;22.10;99.90;;;;;;5092886;28;20480;-72
2023/05/26 19:09:09;;;;;;;7.15;3.70;;;22.10;99.90;;;;;;5091943;28;20060;-82
2023/05/26 19:11:37;;;;;;;8.30;3.80;;;22.10;99.90;;;;;;5075630;28;20073;-72
2023/05/26 19:14:11;;;;;;;8.35;3.58;;;22.00;99.90;;;;;;5093379;28;20071;-71
2023/05/26 19:16:39;;;;;;;10.45;3.95;;;21.80;99.90;;;;;;5079200;28;20046;-72
2023/05/26 19:19:06;;;;;;;7.53;3.90;;;21.80;99.90;;;;;;5090017;28;20028;-72
2023/05/26 19:21:36;;;;;;;7.53;3.92;;;21.80;99.90;;;;;;5075701;28;20123;-74
2023/05/26 19:24:03;;;;;;;9.45;4.78;;;21.90;99.90;;;;;;5093439;28;20023;-73
2023/05/26 19:26:34;;;;;;;6.55;3.47;;;21.70;99.90;;;;;;5074698;28;20740;-74
2023/05/26 19:29:01;;;;;;;11.82;3.53;;;21.70;99.90;;;;;;5071970;28;20116;-76
2023/05/26 19:31:28;;;;;;;8.52;4.03;;;21.60;99.90;;;;;;5093205;28;20024;-74
2023/05/26 19:33:55;;;;;;;7.78;4.25;;;21.60;99.90;;;;;;5062432;28;20027;-66
2023/05/26 19:36:22;;;;;;;4.93;3.40;;;21.50;99.90;;;;;;5089703;28;20043;-75
2023/05/26 19:38:48;;;;;;;;;;;21.50;99.90;;;;;;5076528;28;20046;-76
2023/05/26 19:41:14;;;;;;;6.38;3.63;;;21.50;99.90;;;;;;5067412;28;19909;-73
2023/05/26 19:43:41;;;;;;;9.45;4.03;;;21.40;99.90;;;;;;5092687;28;20084;-73
2023/05/26 19:46:07;;;;;;;8.27;4.18;;;21.30;99.90;;;;;;5075026;28;20130;-76
2023/05/26 19:48:35;;;;;;;6.75;3.45;;;21.30;99.90;;;;;;5093824;28;20036;-76
2023/05/26 19:51:01;;;;;;;7.03;3.63;;;21.30;99.90;;;;;;5075878;28;20094;-77
2023/05/26 19:53:28;;;;;;;5.55;3.80;;;21.20;99.90;;;;;;5091187;28;20023;-77
2023/05/26 19:55:55;;;;;;;6.55;3.53;;;21.00;99.90;;;;;;5090727;28;20025;-72
2023/05/26 19:58:21;;;;;;;6.32;3.40;;;21.00;99.90;;;;;;5074800;28;20105;-78
2023/05/26 20:00:47;;;;;;;8.30;4.05;;;20.90;99.90;;;;;;5074499;28;20035;-79
2023/05/26 20:03:14;;;;;;;5.90;3.63;;;20.70;99.90;;;;;;5090594;28;20072;-75
2023/05/26 20:05:42;;;;;;;7.93;3.97;;;20.80;99.90;;;;;;5090155;28;20028;-80
2023/05/26 20:08:09;;;;;;;6.50;3.40;;;20.90;99.90;;;;;;5073042;28;20413;-77
2023/05/26 20:10:35;;;;;;;9.48;4.10;;;20.90;99.90;;;;;;5092402;28;20108;-77
2023/05/26 20:13:04;;;;;;;10.75;3.80;;;20.80;99.90;;;;;;5091188;28;20488;-78
2023/05/26 20:15:31;;;;;;;10.02;3.90;;;20.80;99.90;;;;;;5090631;28;20028;-73
2023/05/26 20:18:02;;;;;;;6.10;3.75;;;20.90;99.90;;;;;;5091414;28;20035;-69
2023/05/26 20:20:28;;;;;;;6.55;3.60;;;20.80;99.90;;;;;;5089142;28;20087;-69
2023/05/26 20:22:55;;;;;;;;;;;20.80;99.90;;;;;;5086099;28;20032;-70
2023/05/26 20:25:21;;;;;;;;;;;20.70;99.90;;;;;;5091762;28;20332;-72
2023/05/26 20:27:47;;;;;;;10.35;3.78;;;20.70;99.90;;;;;;5092020;28;19994;-66
2023/05/26 20:30:13;;;;;;;5.22;3.20;;;20.70;99.90;;;;;;5092226;28;20035;-70
2023/05/26 20:32:39;;;;;;;8.15;3.50;;;20.80;99.90;;;;;;5092077;28;20028;-71
2023/05/26 20:35:06;;;;;;;6.88;3.60;;;20.70;99.90;;;;;;5091987;28;20457;-71
2023/05/26 20:37:32;;;;;;;6.07;3.95;;;20.60;99.90;;;;;;5092096;28;20028;-70
2023/05/26 20:39:58;;;;;;;7.32;3.80;;;20.70;99.90;;;;;;5090575;28;20035;-70
2023/05/26 20:42:30;;;;;;;12.88;3.63;;;20.70;99.90;;;;;;5091884;28;20032;-70
2023/05/26 20:44:57;;;;;;;7.47;3.85;;;20.70;99.90;;;;;;5092033;28;20024;-71
2023/05/26 20:47:23;;;;;;;6.63;3.50;;;20.70;99.90;;;;;;5091524;28;20028;-70
2023/05/26 20:49:49;;;;;;;8.73;3.92;;;20.60;99.90;;;;;;5091030;28;20032;-70
2023/05/26 20:52:50;;;;;;;7.57;3.72;;;20.50;99.90;;;;;;5090985;28;20024;-68
2023/05/26 20:55:17;;;;;;;6.82;3.50;;;20.50;99.90;;;;;;5080577;28;20357;-71
2023/05/26 20:57:43;;;;;;;7.45;3.80;;;20.50;99.90;;;;;;5078196;28;20032;-70
2023/05/26 21:00:09;;;;;;;6.68;3.35;;;20.50;99.90;;;;;;5052475;28;20428;-71
2023/05/26 21:02:35;;;;;;;;;;;20.40;99.90;;;;;;5070812;28;20074;-71
2023/05/26 21:05:01;;;;;;;9.50;3.70;;;20.40;99.90;;;;;;5051844;28;19909;-72
2023/05/26 21:07:28;;;;;;;5.53;3.75;;;20.30;99.90;;;;;;5069864;28;20050;-71
2023/05/26 21:09:54;;;;;;;11.50;3.80;;;20.30;99.90;;;;;;5048339;28;20049;-71
2023/05/26 21:12:20;;;;;;;8.00;3.72;;;20.30;99.90;;;;;;5048723;28;20029;-72
2023/05/26 21:14:47;;;;;;;6.80;3.80;;;20.30;99.90;;;;;;5050400;28;20111;-70
2023/05/26 21:17:13;;;;;;;7.50;3.97;;;20.30;99.90;;;;;;5050299;28;20381;-71
2023/05/26 21:19:39;;;;;;;;;;;20.30;99.90;;;;;;5049269;28;20122;-70
2023/05/26 21:22:05;;;;;;;7.18;3.80;;;20.30;99.90;;;;;;5050434;28;19915;-71
2023/05/26 21:24:31;;;;;;;8.07;4.15;;;20.30;99.90;;;;;;5048564;28;20029;-71
2023/05/26 21:26:57;;;;;;;7.95;3.78;;;20.30;99.90;;;;;;5050337;28;20029;-72
2023/05/26 21:29:23;;;;;;;6.28;3.90;;;20.30;99.90;;;;;;5049978;28;20087;-70
2023/05/26 21:31:50;;;;;;;10.68;4.07;;;20.30;99.90;;;;;;5046848;28;20111;-71
2023/05/26 21:35:01;;;;;;;7.85;4.40;;;20.40;99.90;;;;;;5044771;28;20100;-70
2023/05/26 21:37:51;;;;;;;9.30;3.65;;;20.40;99.90;;;;;;5033914;28;20377;-70
2023/05/26 21:40:35;;;;;;;8.10;4.18;;;20.40;99.90;;;;;;5076537;28;20041;-70
2023/05/26 21:43:01;;;;;;;11.07;3.85;;;20.40;99.90;;;;;;5050585;28;20406;-71
2023/05/26 21:45:27;;;;;;;6.18;4.10;;;20.40;99.90;;;;;;5053708;28;20410;-71
2023/05/26 21:47:53;;;;;;;7.47;4.13;;;20.40;99.90;;;;;;5053535;28;20126;-70
2023/05/26 21:50:19;;;;;;;8.45;4.30;;;20.30;99.90;;;;;;5034208;28;20037;-72
2023/05/26 21:52:45;;;;;;;10.63;4.03;;;20.40;99.90;;;;;;5033928;28;20049;-72
2023/05/26 21:55:11;;;;;;;7.80;3.92;;;20.30;99.90;;;;;;5064611;28;20024;-72
2023/05/26 21:57:38;;;;;;;11.25;4.13;;;20.40;99.90;;;;;;5058336;28;20020;-70
2023/05/26 22:00:12;;;;;;;8.73;4.57;;;20.40;99.90;;;;;;5050512;28;20106;-71
2023/05/26 22:02:42;;;;;;;7.22;4.38;;;20.30;99.90;;;;;;5052618;28;20040;-73
2023/05/26 22:05:08;;;;;;;15.52;4.80;;;20.40;99.90;;;;;;5053505;28;20048;-71
2023/05/26 22:07:34;;;;;;;9.48;4.38;;;20.40;99.90;;;;;;5041087;28;20033;-73
2023/05/26 22:10:00;;;;;;;7.13;4.60;;;20.40;99.90;;;;;;5061510;28;20049;-71
2023/05/26 22:12:27;;;;;;;7.35;4.60;;;20.40;99.90;;;;;;5072265;28;20029;-70
2023/05/26 22:14:53;;;;;;;9.23;4.10;;;20.40;99.90;;;;;;5058955;28;20033;-71
2023/05/26 22:17:19;;;;;;;9.02;4.53;;;20.40;99.90;;;;;;5064275;28;20038;-73
2023/05/26 22:19:45;;;;;;;7.30;4.13;;;20.50;99.90;;;;;;5073110;28;20025;-72
2023/05/26 22:22:11;;;;;;;9.07;4.63;;;20.50;99.90;;;;;;5073427;28;20040;-71
2023/05/26 22:24:37;;;;;;;7.53;4.22;;;20.40;99.90;;;;;;5071206;28;20526;-71
2023/05/26 22:27:05;;;;;;;7.68;4.20;;;20.50;99.90;;;;;;5072091;28;20025;-71
2023/05/26 22:29:31;;;;;;;12.95;5.00;;;20.50;99.90;;;;;;5059744;28;20036;-72
2023/05/26 22:31:57;;;;;;;8.27;4.38;;;20.50;99.90;;;;;;5072878;28;20021;-72
2023/05/26 22:34:23;;;;;;;8.40;4.13;;;20.60;99.90;;;;;;5072948;28;20056;-72
2023/05/26 22:36:49;;;;;;;10.38;4.80;;;20.60;99.90;;;;;;5072902;28;20035;-72
2023/05/26 22:39:15;;;;;;;7.00;4.70;;;20.60;99.90;;;;;;5071927;28;20017;-72
2023/05/26 22:41:41;;;;;;;9.85;4.70;;;20.70;99.90;;;;;;5072489;28;20033;-67
2023/05/26 22:44:07;;;;;;;6.68;4.15;;;20.60;99.90;;;;;;5072728;28;20103;-71
2023/05/26 22:46:33;;;;;;;9.90;4.45;;;20.40;99.90;;;;;;5072800;28;20107;-71
2023/05/26 22:48:59;;;;;;;11.65;4.50;;;20.30;99.90;;;;;;5072591;28;20436;-72
2023/05/26 22:51:26;;;;;;;9.82;4.97;;;20.40;99.90;;;;;;5072621;28;20154;-70
2023/05/26 22:53:52;;;;;;;10.80;4.40;;;20.30;99.90;;;;;;5072795;28;20052;-71
2023/05/26 22:56:18;;;;;;;5.85;4.25;;;20.40;99.90;;;;;;5068142;28;20077;-71
2023/05/26 22:58:44;;;;;;;9.38;4.70;;;20.40;99.90;;;;;;5052587;28;20104;-72
2023/05/26 23:01:10;;;;;;;9.02;4.88;;;20.50;99.90;;;;;;5052178;28;20028;-71
2023/05/26 23:03:37;;;;;;;8.75;4.47;;;20.40;99.90;;;;;;5052181;28;20466;-70
2023/05/26 23:06:03;;;;;;;8.00;4.22;;;20.40;99.90;;;;;;5052432;28;20017;-72
2023/05/26 23:08:30;;;;;;;6.95;4.57;;;20.50;99.90;;;;;;5058565;28;20044;-70
2023/05/26 23:10:56;;;;;;;9.57;4.70;;;20.50;99.90;;;;;;5090734;28;20020;-72
2023/05/26 23:13:22;;;;;;;8.60;4.63;;;20.50;99.90;;;;;;5091557;28;20020;-70
2023/05/26 23:15:48;;;;;;;7.95;4.70;;;20.50;99.90;;;;;;5092395;28;20102;-71
2023/05/26 23:18:14;;;;;;;9.27;5.15;;;20.40;99.90;;;;;;5092507;28;20113;-71
2023/05/26 23:20:40;;;;;;;7.65;4.40;;;20.30;99.90;;;;;;5092180;28;20078;-71
2023/05/26 23:23:06;;;;;;;10.93;4.80;;;20.30;99.90;;;;;;5095839;28;20067;-72
2023/05/26 23:25:32;;;;;;;11.70;4.50;;;20.20;99.90;;;;;;5092096;28;20025;-72
2023/05/26 23:27:58;;;;;;;8.82;4.60;;;20.10;99.90;;;;;;5091936;28;20468;-71
2023/05/26 23:30:24;;;;;;;7.75;4.88;;;20.10;99.90;;;;;;5089223;28;20095;-69
2023/05/26 23:32:50;;;;;;;7.13;4.72;;;20.10;99.90;;;;;;5072388;28;20092;-70
2023/05/26 23:35:16;;;;;;;10.82;4.90;;;20.10;99.90;;;;;;5068981;28;20028;-71
2023/05/26 23:37:42;;;;;;;7.90;4.35;;;20.20;99.90;;;;;;5071618;28;20079;-72
2023/05/26 23:40:09;;;;;;;9.18;5.05;;;20.20;99.90;;;;;;5082676;28;20035;-71
2023/05/26 23:42:35;;;;;;;6.50;4.72;;;20.20;99.90;;;;;;5092070;28;20020;-72
2023/05/26 23:45:01;;;;;;;8.60;4.65;;;20.20;99.90;;;;;;5091722;28;20177;-71
2023/05/26 23:47:28;;;;;;;12.77;5.45;;;20.20;99.90;;;;;;5091005;28;20032;-72
2023/05/26 23:49:55;;;;;;;11.18;4.70;;;20.20;99.90;;;;;;5071988;28;20515;-70
2023/05/26 23:52:21;;;;;;;9.45;4.75;;;20.20;99.90;;;;;;5090762;28;20066;-71
2023/05/26 23:54:47;;;;;;;8.13;4.60;;;20.20;99.90;;;;;;5091509;28;20031;-72
2023/05/26 23:57:13;;;;;;;9.85;4.70;;;20.20;99.90;;;;;;5091674;28;20462;-70
2023/05/26 23:59:40;;;;;;;10.70;5.05;;;20.20;99.90;;;;;;5071421;28;20085;-70
